Airfield :
LOGIN :

Register | Disclaimer

   EN    FR    IT 

 










Legend :    VFR   Marginal VFR   IFR   Intensive IFR   Very Intensive IFR
Visi :
Ceiling :
>= 8 km
>= 3000ft
5 to 8 km
1000 to 3000 ft
1500m to 5 km
500 to 1000 ft
800 to 1500m
200 to 500 ft
< 800m
< 200 ft
Symbols :   Thunderstorms  Fog  Heavy snow  Heavy precipitations  Wind > 20 kt
SIGMETs :     Misc.  Thunderstorms  Icing  Turbulence  Mountain Waves  Volcanic Ashes






- Airport Elevation : 266 ft
- IATA code : NCL


EGNT - Newcastle

CURRENT METAR :
  • 142350Z 36010KT 9999 -RA BKN025 05/05 Q1009

EXPIRED METARs :
  • 142320Z 36013KT 9999 -RA BKN030 05/05 Q1009
  • 142250Z 01012KT 9999 -RA BKN025 05/05 Q1009
  • 142220Z 35010KT 9999 -RA BKN020 05/05 Q1009
  • 142150Z 35010KT 9999 -RA SCT018 SCT035 05/05 Q1009
  • 142120Z 36014KT 9999 -RA SCT022 SCT035 05/04 Q1009
  • 142050Z 36009KT 9999 -RA SCT022 SCT035 05/04 Q1009

TAF TAF EGNT
Valid from the 15 at 00:00 until the 16 at 00:00 UTC


142304Z 1500/1524 01010KT 9999 SCT025
TEMPO 1500/1511 8000 -RA BKN012
PROB30
TEMPO 1500/1511 SHRA BKN008
TEMPO 1511/1522 8000 -SHRA
PROB40
TEMPO 1518/1524 02015G25KT
BECMG 1522/1524 SCT006 BKN010
TEMPO 1522/1524 6000 -RADZ
ATIS : +44 191 214 3400



MET'MAP, your aeronautical weather chart ! - Copyright ORBIFLY December 2007 - Disclaimer

ORBIFLY MET'MAP TEAM :

Programming & Development : Alexandra Zaïnal
Concept & Development : Baudouin d'Aumeries
Co-Development & Prog : Marc-Olivier Méhu
Technical & hardware support : Manuel Goepfert

Contact : metmap@orbifly.com




SOURCES & CREDITS :

   NOAA